createdAt,value
2019-05-21T00:00:09.741Z,31.27
2019-05-21T00:02:38.332Z,33.97
2019-05-21T00:05:07.535Z,30.40
2019-05-21T00:07:36.116Z,30.30
2019-05-21T00:10:08.917Z,30.60
2019-05-21T00:12:37.543Z,30.23
2019-05-21T00:15:06.358Z,29.83
2019-05-21T00:17:34.946Z,27.60
2019-05-21T00:20:05.544Z,27.50
2019-05-21T00:22:34.253Z,27.17
2019-05-21T00:25:03.068Z,26.90
2019-05-21T00:27:31.619Z,25.20
2019-05-21T00:30:36.881Z,25.47
2019-05-21T00:33:41.919Z,23.33
2019-05-21T00:36:48.731Z,21.90
2019-05-21T00:39:53.470Z,20.73
2019-05-21T00:42:27.727Z,20.50
2019-05-21T00:44:56.310Z,22.00
2019-05-21T00:47:25.000Z,21.00
2019-05-21T00:49:53.590Z,20.57
2019-05-21T00:52:22.280Z,17.63
2019-05-21T00:54:50.942Z,17.73
2019-05-21T00:57:19.491Z,17.47
2019-05-21T00:59:48.150Z,17.60
2019-05-21T01:02:16.743Z,17.10
2019-05-21T01:04:59.589Z,16.20
2019-05-21T01:07:15.987Z,16.37
2019-05-21T01:09:44.862Z,15.47
2019-05-21T01:12:13.458Z,15.07
2019-05-21T01:14:41.998Z,14.23
2019-05-21T01:17:10.695Z,15.07
2019-05-21T01:19:39.215Z,13.33
2019-05-21T01:22:07.864Z,13.30
2019-05-21T01:24:36.870Z,12.10
2019-05-21T01:27:05.457Z,12.10
2019-05-21T01:29:34.015Z,13.00
2019-05-21T01:32:02.892Z,11.30
2019-05-21T01:34:32.055Z,12.63
2019-05-21T01:37:00.755Z,11.23
2019-05-21T01:39:29.236Z,11.00
2019-05-21T01:41:57.852Z,10.37
2019-05-21T01:44:26.435Z,9.33
2019-05-21T01:46:54.991Z,8.63
2019-05-21T01:49:23.579Z,9.30
2019-05-21T01:51:52.142Z,8.77
2019-05-21T01:54:21.064Z,9.07
2019-05-21T01:56:49.609Z,9.47
2019-05-21T01:59:18.124Z,9.00
2019-05-21T02:01:46.674Z,7.50
2019-05-21T02:04:15.256Z,9.10
2019-05-21T02:06:44.268Z,7.93
2019-05-21T02:09:12.854Z,8.10
2019-05-21T02:11:41.392Z,8.10
2019-05-21T02:14:09.982Z,7.53
2019-05-21T02:16:38.552Z,7.23
2019-05-21T02:19:07.119Z,7.60
2019-05-21T02:21:35.665Z,7.60
2019-05-21T02:24:04.458Z,8.03
2019-05-21T02:26:33.036Z,7.77
2019-05-21T02:29:01.704Z,6.47
2019-05-21T02:31:30.252Z,7.10
2019-05-21T02:33:58.834Z,7.37
2019-05-21T02:36:27.420Z,6.67
2019-05-21T02:38:55.998Z,7.97
2019-05-21T02:41:24.711Z,7.37
2019-05-21T02:43:53.282Z,7.00
2019-05-21T02:46:22.186Z,7.10
2019-05-21T02:48:50.735Z,6.50
2019-05-21T02:51:19.319Z,7.00
2019-05-21T02:53:47.871Z,6.60
2019-05-21T02:56:16.470Z,6.60
2019-05-21T02:58:45.015Z,5.67
2019-05-21T03:01:18.343Z,6.63
2019-05-21T03:03:46.883Z,6.10
2019-05-21T03:06:15.489Z,6.13
2019-05-21T03:08:44.079Z,6.00
2019-05-21T03:11:12.708Z,6.17
2019-05-21T03:13:41.324Z,6.10
2019-05-21T03:16:09.866Z,5.13
2019-05-21T03:18:38.526Z,5.03
2019-05-21T03:21:07.182Z,5.13
2019-05-21T03:23:35.724Z,5.37
2019-05-21T03:26:04.372Z,4.87
2019-05-21T03:28:32.897Z,3.83
2019-05-21T03:31:01.381Z,3.80
2019-05-21T03:33:30.039Z,4.50
2019-05-21T03:35:58.568Z,3.67
2019-05-21T03:38:27.154Z,3.67
2019-05-21T03:40:55.744Z,3.00
2019-05-21T03:43:24.390Z,2.37
2019-05-21T03:45:52.939Z,1.87
2019-05-21T03:48:21.475Z,1.93
2019-05-21T03:50:50.076Z,2.03
2019-05-21T03:53:18.612Z,1.60
2019-05-21T03:55:47.191Z,2.00
2019-05-21T03:58:15.729Z,2.10
2019-05-21T04:00:44.414Z,1.70
2019-05-21T04:03:12.952Z,1.80
2019-05-21T04:05:41.533Z,1.50
2019-05-21T04:08:10.068Z,1.90
2019-05-21T04:10:38.751Z,2.07
2019-05-21T04:13:07.884Z,2.07
2019-05-21T04:15:47.524Z,2.17
2019-05-21T04:18:26.497Z,2.30
2019-05-21T04:20:55.355Z,2.50
2019-05-21T04:23:23.931Z,2.80
2019-05-21T04:25:52.525Z,2.70
2019-05-21T04:28:21.061Z,3.10
2019-05-21T04:30:49.715Z,3.57
2019-05-21T04:33:18.260Z,3.40
2019-05-21T04:35:46.844Z,3.57
2019-05-21T04:38:15.391Z,2.90
2019-05-21T04:40:43.992Z,2.40
2019-05-21T04:43:12.601Z,3.13
2019-05-21T04:45:41.207Z,2.87
2019-05-21T04:48:09.744Z,2.70
2019-05-21T04:50:38.322Z,2.20
2019-05-21T04:53:06.873Z,2.43
2019-05-21T04:55:35.744Z,2.10
2019-05-21T04:58:04.362Z,2.17
2019-05-21T05:00:32.955Z,2.40
2019-05-21T05:03:01.508Z,2.43
2019-05-21T05:05:30.173Z,2.40
2019-05-21T05:07:58.715Z,3.93
2019-05-21T05:10:27.295Z,2.70
2019-05-21T05:12:55.837Z,2.07
2019-05-21T05:15:24.425Z,2.23
2019-05-21T05:17:52.963Z,2.20
2019-05-21T05:20:21.550Z,3.00
2019-05-21T05:22:50.133Z,2.10
2019-05-21T05:25:19.331Z,2.47
2019-05-21T05:27:47.884Z,2.90
2019-05-21T05:30:17.225Z,2.10
2019-05-21T05:32:45.771Z,2.37
2019-05-21T05:35:14.632Z,2.33
2019-05-21T05:37:47.899Z,2.30
2019-05-21T05:40:14.111Z,2.07
2019-05-21T05:42:42.916Z,2.20
2019-05-21T05:45:11.995Z,2.67
2019-05-21T05:47:40.580Z,2.00
2019-05-21T05:50:11.011Z,2.47
2019-05-21T05:52:39.596Z,2.10
2019-05-21T05:55:08.316Z,2.33
2019-05-21T05:57:36.894Z,2.30
2019-05-21T06:00:10.756Z,2.53
2019-05-21T06:02:39.350Z,2.73
2019-05-21T06:05:08.467Z,2.80
2019-05-21T06:07:37.016Z,3.10
2019-05-21T06:10:06.668Z,2.50
2019-05-21T06:12:35.348Z,2.90
2019-05-21T06:15:05.615Z,3.13
2019-05-21T06:17:34.252Z,3.67
2019-05-21T06:20:02.996Z,3.20
2019-05-21T06:22:31.535Z,3.43
2019-05-21T06:25:00.073Z,3.40
2019-05-21T06:27:28.643Z,3.67
2019-05-21T06:29:57.276Z,2.63
2019-05-21T06:32:25.814Z,3.07
2019-05-21T06:34:54.316Z,3.20
2019-05-21T06:37:22.883Z,3.43
2019-05-21T06:39:51.437Z,4.13
2019-05-21T06:42:20.024Z,3.27
2019-05-21T06:44:48.846Z,3.73
2019-05-21T06:47:17.410Z,3.60
2019-05-21T06:49:45.947Z,3.77
2019-05-21T06:52:14.514Z,3.43
2019-05-21T06:54:43.078Z,3.57
2019-05-21T06:57:11.653Z,3.20
2019-05-21T06:59:40.189Z,3.03
2019-05-21T07:02:08.793Z,3.30
2019-05-21T07:04:37.328Z,3.03
2019-05-21T07:07:06.042Z,3.00
2019-05-21T07:09:34.719Z,3.37
2019-05-21T07:12:03.454Z,2.70
2019-05-21T07:14:31.999Z,2.40
2019-05-21T07:17:00.577Z,2.90
2019-05-21T07:19:29.129Z,2.83
2019-05-21T07:22:11.504Z,2.50
2019-05-21T07:24:28.404Z,3.33
2019-05-21T07:26:57.489Z,2.80
2019-05-21T07:29:26.057Z,2.70
2019-05-21T07:31:54.656Z,2.30
2019-05-21T07:34:23.193Z,2.83
2019-05-21T07:36:51.880Z,2.33
2019-05-21T07:39:20.382Z,2.20
2019-05-21T07:41:48.972Z,2.17
2019-05-21T07:44:17.567Z,2.47
2019-05-21T07:46:46.098Z,2.17
2019-05-21T07:49:14.711Z,1.90
2019-05-21T07:51:43.255Z,2.20
2019-05-21T07:54:11.858Z,2.20
2019-05-21T07:56:40.403Z,1.70
2019-05-21T07:59:09.058Z,1.83
2019-05-21T08:01:37.599Z,1.73
2019-05-21T08:04:06.189Z,1.60
2019-05-21T08:06:34.722Z,2.23
2019-05-21T08:09:13.556Z,1.83
2019-05-21T08:11:35.322Z,1.70
2019-05-21T08:14:04.647Z,1.70
2019-05-21T08:16:33.209Z,1.90
2019-05-21T08:19:01.790Z,1.57
2019-05-21T08:21:30.411Z,1.53
2019-05-21T08:23:58.992Z,1.77
2019-05-21T08:26:27.539Z,1.50
2019-05-21T08:28:56.131Z,1.50
2019-05-21T08:31:24.787Z,1.60
2019-05-21T08:33:53.362Z,1.50
2019-05-21T08:36:21.880Z,1.47
2019-05-21T08:38:50.419Z,1.50
2019-05-21T08:41:19.002Z,1.50
2019-05-21T08:43:47.616Z,2.03
2019-05-21T08:46:16.205Z,1.70
2019-05-21T08:48:44.748Z,2.13
2019-05-21T08:51:13.332Z,2.33
2019-05-21T08:53:41.877Z,2.10
2019-05-21T08:56:10.463Z,2.17
2019-05-21T08:58:39.071Z,3.13
2019-05-21T09:01:07.789Z,3.20
2019-05-21T09:03:36.690Z,2.77
2019-05-21T09:06:05.401Z,3.77
2019-05-21T09:08:33.951Z,3.63
2019-05-21T09:11:02.538Z,3.90
2019-05-21T09:13:31.556Z,4.33
2019-05-21T09:16:00.191Z,4.37
2019-05-21T09:18:28.883Z,4.33
2019-05-21T09:20:57.537Z,4.80
2019-05-21T09:23:26.079Z,4.73
2019-05-21T09:25:54.680Z,4.10
2019-05-21T09:28:23.266Z,4.80
2019-05-21T09:30:51.779Z,3.80
2019-05-21T09:33:20.346Z,3.80
2019-05-21T09:35:48.958Z,3.10
2019-05-21T09:38:17.602Z,3.10
2019-05-21T09:40:46.318Z,2.80
2019-05-21T09:43:14.915Z,3.73
2019-05-21T09:45:44.083Z,3.03
2019-05-21T09:48:12.678Z,4.17
2019-05-21T09:50:41.328Z,7.90
2019-05-21T09:53:09.916Z,7.13
2019-05-21T09:55:38.492Z,4.37
2019-05-21T09:58:14.594Z,4.23
2019-05-21T10:01:01.352Z,3.27
2019-05-21T10:03:43.689Z,2.70
2019-05-21T10:06:12.569Z,3.20
2019-05-21T10:08:41.147Z,2.90
2019-05-21T10:11:09.679Z,3.57
2019-05-21T10:13:38.291Z,2.80
2019-05-21T10:16:06.898Z,2.93
2019-05-21T10:18:35.429Z,3.37
2019-05-21T10:21:04.142Z,2.90
2019-05-21T10:23:32.722Z,2.87
2019-05-21T10:26:01.302Z,3.17
2019-05-21T10:28:30.217Z,3.13
2019-05-21T10:30:58.822Z,3.67
2019-05-21T10:33:27.350Z,3.80
2019-05-21T10:35:55.854Z,4.57
2019-05-21T10:38:24.402Z,3.70
2019-05-21T10:40:53.049Z,3.70
2019-05-21T10:43:21.521Z,3.33
2019-05-21T10:45:50.249Z,4.40
2019-05-21T10:48:18.859Z,3.27
2019-05-21T10:50:47.454Z,3.43
2019-05-21T10:53:16.003Z,4.23
2019-05-21T10:55:44.590Z,3.43
2019-05-21T10:58:13.204Z,5.40
2019-05-21T11:00:42.046Z,4.27
2019-05-21T11:03:12.276Z,5.20
2019-05-21T11:05:48.268Z,3.57
2019-05-21T11:08:25.166Z,3.20
2019-05-21T11:10:47.222Z,3.17
2019-05-21T11:13:16.094Z,4.10
2019-05-21T11:15:44.633Z,4.30
2019-05-21T11:18:13.274Z,3.73
2019-05-21T11:20:42.200Z,3.63
2019-05-21T11:23:10.780Z,3.47
2019-05-21T11:25:39.321Z,4.20
2019-05-21T11:28:07.961Z,4.10
2019-05-21T11:30:36.513Z,4.20
2019-05-21T11:33:05.395Z,4.03
2019-05-21T11:35:36.159Z,4.00
2019-05-21T11:38:04.353Z,4.53
2019-05-21T11:40:33.083Z,4.80
2019-05-21T11:43:01.625Z,5.20
2019-05-21T11:45:32.771Z,5.20
2019-05-21T11:48:00.474Z,5.40
2019-05-21T11:50:29.118Z,5.20
2019-05-21T11:52:57.800Z,5.10
2019-05-21T11:55:26.429Z,4.97
2019-05-21T11:57:54.914Z,6.50
2019-05-21T12:00:25.718Z,5.57
2019-05-21T12:02:54.204Z,5.47
2019-05-21T12:05:22.783Z,6.03
2019-05-21T12:07:51.302Z,6.40
2019-05-21T12:10:19.886Z,5.83
2019-05-21T12:12:48.423Z,6.00
2019-05-21T12:15:17.257Z,5.80
2019-05-21T12:17:45.798Z,6.03
2019-05-21T12:20:14.721Z,6.13
2019-05-21T12:22:43.258Z,5.93
2019-05-21T12:25:12.184Z,6.00
2019-05-21T12:27:40.733Z,7.00
2019-05-21T12:30:09.959Z,7.27
2019-05-21T12:32:38.501Z,7.50
2019-05-21T12:35:07.482Z,6.23
2019-05-21T12:37:36.040Z,7.40
2019-05-21T12:40:09.181Z,6.77
2019-05-21T12:42:37.776Z,7.37
2019-05-21T12:45:07.357Z,7.50
2019-05-21T12:47:35.895Z,6.67
2019-05-21T12:50:06.505Z,7.47
2019-05-21T12:52:35.051Z,7.23
2019-05-21T12:55:05.575Z,8.40
2019-05-21T12:57:34.107Z,7.60
2019-05-21T13:00:02.701Z,7.87
2019-05-21T13:02:31.244Z,8.00
2019-05-21T13:04:59.799Z,8.47
2019-05-21T13:07:28.413Z,7.90
2019-05-21T13:09:56.969Z,7.83
2019-05-21T13:12:25.506Z,8.30
2019-05-21T13:14:54.009Z,7.53
2019-05-21T13:17:22.474Z,7.90
2019-05-21T13:19:51.059Z,7.77
2019-05-21T13:22:19.622Z,8.27
2019-05-21T13:24:48.303Z,7.80
2019-05-21T13:27:16.895Z,7.67
2019-05-21T13:29:45.483Z,7.43
2019-05-21T13:32:14.707Z,7.30
2019-05-21T13:34:43.254Z,7.97
2019-05-21T13:37:11.827Z,7.37
2019-05-21T13:39:49.407Z,8.13
2019-05-21T13:42:10.667Z,8.53
2019-05-21T13:44:39.209Z,6.97
2019-05-21T13:47:07.823Z,6.10
2019-05-21T13:49:36.373Z,5.93
2019-05-21T13:52:05.035Z,5.23
2019-05-21T13:54:33.563Z,6.00
2019-05-21T13:57:02.155Z,5.23
2019-05-21T13:59:30.807Z,5.40
2019-05-21T14:02:00.091Z,4.80
2019-05-21T14:04:29.256Z,5.00
2019-05-21T14:06:57.743Z,6.70
2019-05-21T14:09:26.395Z,5.57
2019-05-21T14:11:54.927Z,5.23
2019-05-21T14:14:24.821Z,5.43
2019-05-21T14:16:53.851Z,5.20
2019-05-21T14:19:22.386Z,6.23
2019-05-21T14:21:50.976Z,4.50
2019-05-21T14:24:19.574Z,4.83
2019-05-21T14:26:48.112Z,5.00
2019-05-21T14:29:16.689Z,4.90
2019-05-21T14:31:45.210Z,4.87
2019-05-21T14:34:13.713Z,4.90
2019-05-21T14:36:42.221Z,4.67
2019-05-21T14:39:12.398Z,5.43
2019-05-21T14:41:40.970Z,5.27
2019-05-21T14:44:09.440Z,5.27
2019-05-21T14:46:38.033Z,6.40
2019-05-21T14:49:06.555Z,5.70
2019-05-21T14:51:35.198Z,5.50
2019-05-21T14:54:04.686Z,5.60
2019-05-21T14:56:33.409Z,6.97
2019-05-21T14:59:02.055Z,6.93
2019-05-21T15:01:30.569Z,6.50
2019-05-21T15:03:59.334Z,6.37
2019-05-21T15:06:28.067Z,6.00
2019-05-21T15:08:56.606Z,6.73
2019-05-21T15:11:25.182Z,6.40
2019-05-21T15:13:53.755Z,7.07
2019-05-21T15:16:22.413Z,6.23
2019-05-21T15:18:50.960Z,6.70
2019-05-21T15:21:21.227Z,6.67
2019-05-21T15:23:49.942Z,6.87
2019-05-21T15:26:18.822Z,6.80
2019-05-21T15:28:47.357Z,7.40
2019-05-21T15:31:15.935Z,6.70
2019-05-21T15:33:44.475Z,6.83
2019-05-21T15:36:13.408Z,6.70
2019-05-21T15:38:50.291Z,7.43
2019-05-21T15:41:12.785Z,7.37
2019-05-21T15:43:41.758Z,6.67
2019-05-21T15:46:10.384Z,6.93
2019-05-21T15:48:38.969Z,7.00
2019-05-21T15:51:07.851Z,6.77
2019-05-21T15:53:36.393Z,6.53
2019-05-21T15:56:05.143Z,7.23
2019-05-21T15:58:33.698Z,6.87
2019-05-21T16:01:02.337Z,7.57
2019-05-21T16:03:30.949Z,7.50
2019-05-21T16:05:59.483Z,7.40
2019-05-21T16:08:28.362Z,7.00
2019-05-21T16:10:56.863Z,7.83
2019-05-21T16:13:25.644Z,6.97
2019-05-21T16:15:54.180Z,7.77
2019-05-21T16:18:22.796Z,6.93
2019-05-21T16:20:51.350Z,6.87
2019-05-21T16:23:19.995Z,7.87
2019-05-21T16:25:48.539Z,7.57
2019-05-21T16:28:17.128Z,7.90
2019-05-21T16:30:45.730Z,7.73
2019-05-21T16:33:14.261Z,7.90
2019-05-21T16:35:42.805Z,7.00
2019-05-21T16:38:11.382Z,8.77
2019-05-21T16:40:40.098Z,8.27
2019-05-21T16:43:08.819Z,8.33
2019-05-21T16:45:37.506Z,7.63
2019-05-21T16:48:06.236Z,7.70
2019-05-21T16:50:34.859Z,8.10
2019-05-21T16:53:03.479Z,7.57
2019-05-21T16:55:33.382Z,8.40
2019-05-21T16:58:02.148Z,8.93
2019-05-21T17:00:30.952Z,7.37
2019-05-21T17:02:59.426Z,7.53
2019-05-21T17:05:27.947Z,8.37
2019-05-21T17:07:56.484Z,7.27
2019-05-21T17:10:25.150Z,7.37
2019-05-21T17:12:53.705Z,7.40
2019-05-21T17:15:22.452Z,7.43
2019-05-21T17:17:50.998Z,7.97
2019-05-21T17:20:19.584Z,9.17
2019-05-21T17:22:48.166Z,8.10
2019-05-21T17:25:16.869Z,8.40
2019-05-21T17:27:45.546Z,8.60
2019-05-21T17:30:15.280Z,7.93
2019-05-21T17:32:43.875Z,8.30
2019-05-21T17:35:13.847Z,8.00
2019-05-21T17:37:42.432Z,7.70
2019-05-21T17:40:11.204Z,7.40
2019-05-21T17:42:40.071Z,8.30
2019-05-21T17:45:10.453Z,7.40
2019-05-21T17:47:39.136Z,8.30
2019-05-21T17:50:09.654Z,8.07
2019-05-21T17:52:38.401Z,8.97
2019-05-21T17:55:07.607Z,8.10
2019-05-21T17:57:36.916Z,8.07
2019-05-21T18:00:07.686Z,8.50
2019-05-21T18:02:36.231Z,7.60
2019-05-21T18:05:07.456Z,9.00
2019-05-21T18:07:37.008Z,8.30
2019-05-21T18:10:07.842Z,8.53
2019-05-21T18:12:36.996Z,8.13
2019-05-21T18:15:12.159Z,8.13
2019-05-21T18:17:41.312Z,7.60
2019-05-21T18:20:11.824Z,9.00
2019-05-21T18:22:42.086Z,9.10
2019-05-21T18:25:12.692Z,8.20
2019-05-21T18:27:41.312Z,9.00
2019-05-21T18:30:10.373Z,9.87
2019-05-21T18:32:38.915Z,8.97
2019-05-21T18:35:09.534Z,8.30
2019-05-21T18:37:39.207Z,8.90
2019-05-21T18:40:08.932Z,8.93
2019-05-21T18:42:37.518Z,8.30
2019-05-21T18:45:10.975Z,8.60
2019-05-21T18:47:39.520Z,8.90
2019-05-21T18:50:09.548Z,8.70
2019-05-21T18:52:38.257Z,9.53
2019-05-21T18:55:07.673Z,10.03
2019-05-21T18:57:36.325Z,9.23
2019-05-21T19:00:13.415Z,10.63
2019-05-21T19:02:42.031Z,8.83
2019-05-21T19:05:10.971Z,11.20
2019-05-21T19:07:39.550Z,10.33
2019-05-21T19:10:13.022Z,10.50
2019-05-21T19:12:41.921Z,9.83
2019-05-21T19:15:11.045Z,9.20
2019-05-21T19:17:39.598Z,10.47
2019-05-21T19:20:08.990Z,12.07
2019-05-21T19:22:37.548Z,11.13
2019-05-21T19:25:08.034Z,10.50
2019-05-21T19:27:36.526Z,11.30
2019-05-21T19:30:09.038Z,10.50
2019-05-21T19:32:37.696Z,9.73
2019-05-21T19:35:07.026Z,10.43
2019-05-21T19:37:35.681Z,10.70
2019-05-21T19:40:05.628Z,11.30
2019-05-21T19:42:34.214Z,11.63
2019-05-21T19:45:03.642Z,12.87
2019-05-21T19:47:32.324Z,11.20
2019-05-21T19:50:01.003Z,12.70
2019-05-21T19:52:29.594Z,12.60
2019-05-21T19:54:58.194Z,12.57
2019-05-21T19:57:27.754Z,13.07
2019-05-21T19:59:56.327Z,13.63
2019-05-21T20:02:25.863Z,15.47
2019-05-21T20:04:55.207Z,13.53
2019-05-21T20:07:24.585Z,13.77
2019-05-21T20:09:53.910Z,13.10
2019-05-21T20:12:23.918Z,12.00
2019-05-21T20:14:52.539Z,13.13
2019-05-21T20:17:21.614Z,13.30
2019-05-21T20:19:51.908Z,14.30
2019-05-21T20:22:22.044Z,14.67
2019-05-21T20:24:51.424Z,14.27
2019-05-21T20:27:20.297Z,13.70
2019-05-21T20:29:48.940Z,14.90
2019-05-21T20:32:19.162Z,14.30
2019-05-21T20:34:50.971Z,13.23
2019-05-21T20:37:20.320Z,14.10
2019-05-21T20:39:50.132Z,14.70
2019-05-21T20:42:21.261Z,14.07
2019-05-21T20:44:50.346Z,14.27
2019-05-21T20:47:19.105Z,15.20
2019-05-21T20:49:48.907Z,13.97
2019-05-21T20:52:19.225Z,14.10
2019-05-21T20:54:47.901Z,14.87
2019-05-21T20:57:17.703Z,13.77
2019-05-21T20:59:46.478Z,13.30
2019-05-21T21:02:16.038Z,13.93
2019-05-21T21:04:44.695Z,14.30
2019-05-21T21:07:13.364Z,13.97
2019-05-21T21:09:42.647Z,15.73
2019-05-21T21:12:11.674Z,15.93
2019-05-21T21:14:41.085Z,14.57
2019-05-21T21:17:11.500Z,16.33
2019-05-21T21:19:40.642Z,15.40
2019-05-21T21:22:09.267Z,14.50
2019-05-21T21:24:38.674Z,15.60
2019-05-21T21:27:08.742Z,14.70
2019-05-21T21:29:37.434Z,14.90
2019-05-21T21:32:06.318Z,17.00
2019-05-21T21:34:34.901Z,17.27
2019-05-21T21:37:04.545Z,16.03
2019-05-21T21:39:33.657Z,16.37
2019-05-21T21:42:02.894Z,15.87
2019-05-21T21:44:34.364Z,16.20
2019-05-21T21:47:02.228Z,16.50
2019-05-21T21:49:32.643Z,15.93
2019-05-21T21:52:01.296Z,17.97
2019-05-21T21:54:30.725Z,16.37
2019-05-21T21:56:59.419Z,16.80
2019-05-21T21:59:28.013Z,17.03
2019-05-21T22:01:59.748Z,18.10
2019-05-21T22:04:32.230Z,17.90
2019-05-21T22:07:01.260Z,18.13
2019-05-21T22:09:31.116Z,16.53
2019-05-21T22:12:00.404Z,17.17
2019-05-21T22:14:30.017Z,18.00
2019-05-21T22:16:59.103Z,17.80
2019-05-21T22:19:28.277Z,15.73
2019-05-21T22:21:57.098Z,17.07
2019-05-21T22:24:26.147Z,16.27
2019-05-21T22:26:54.765Z,16.23
2019-05-21T22:29:23.829Z,17.87
2019-05-21T22:31:52.509Z,17.20
2019-05-21T22:34:21.560Z,15.97
2019-05-21T22:36:50.194Z,14.20
2019-05-21T22:39:20.432Z,16.30
2019-05-21T22:41:49.158Z,15.90
2019-05-21T22:44:17.985Z,16.10
2019-05-21T22:46:48.016Z,14.83
2019-05-21T22:49:16.641Z,16.00
2019-05-21T22:51:45.328Z,15.87
2019-05-21T22:54:13.964Z,16.17
2019-05-21T22:56:42.589Z,15.67
2019-05-21T22:59:11.320Z,16.07
2019-05-21T23:01:40.156Z,15.43
2019-05-21T23:04:09.022Z,14.27
2019-05-21T23:06:37.847Z,14.90
2019-05-21T23:09:08.550Z,14.43
2019-05-21T23:11:37.205Z,15.60
2019-05-21T23:14:06.650Z,14.80
2019-05-21T23:16:35.535Z,14.70
2019-05-21T23:19:05.214Z,15.60
2019-05-21T23:21:35.213Z,14.80
2019-05-21T23:24:03.981Z,14.93
2019-05-21T23:26:34.155Z,15.50
2019-05-21T23:29:04.397Z,14.40
2019-05-21T23:31:33.676Z,15.97
2019-05-21T23:34:03.788Z,14.30
2019-05-21T23:36:32.657Z,14.90
2019-05-21T23:39:03.095Z,16.23
2019-05-21T23:41:32.711Z,15.90
2019-05-21T23:44:01.842Z,16.37
2019-05-21T23:46:30.431Z,15.17
2019-05-21T23:48:59.410Z,15.80
2019-05-21T23:51:27.958Z,14.93
2019-05-21T23:53:57.438Z,15.80
2019-05-21T23:56:26.060Z,16.43
2019-05-21T23:58:55.091Z,15.97
